Aérodrome :
LOGIN :

S'inscrire | Disclaimer

   EN    FR    IT 

 










Légende :    VFR   VFR Marginal   IFR   IFR Intensif   IFR Très Intensif
Visi : 
Plafond : 
>= 8 km
>= 3000ft
5 à 8 km
1000 à 3000 ft
1500m à 5 km
500 à 1000 ft
800 à 1500m
200 à 500 ft
< 800m
< 200 ft
Symboles :   Orages  Brouillard  Fortes neiges  Fortes précipitations  Vent > 20 kt
SIGMETs :   Divers  Orages  Givrage  Turbulence  Onde Orograph.  Cendres Volcan.







- Altitude de l'aérodrome : 856 ft
- Code IATA : VGO


LEVX - Vigo Peinador

DERNIER METAR :
  • 181500Z 21017KT 9999 FEW017 SCT022 BKN036 18/16 Q1011 TEMPO RA

METARs EXPIRÉS :
  • 181430Z 20017KT 160V230 9999 SCT003 BKN015 17/16 Q1011 TEMPO RA
  • 181412Z 19014G25KT 160V220 9999 SCT003 BKN007 16/15 Q1011 TEMPO RA
  • 181400Z 19012KT 140V220 2500 0800S -RA BCFG OVC003 16/15 Q1011 TEMPO RA
  • 181336Z 19014KT 160V220 3000 -RA BKN003 16/15 Q1011 TEMPO RA
  • 181304Z 19018G34KT 140V220 3000 -RA SCT002 BKN005 16/16 Q1010 TEMPO RA
  • 181230Z 19018G31KT 140V230 6000 RA SCT017 BKN024 17/15 Q1010 TEMPO RA

TAF AMD TAF LEVX
Valide du 18 à 13h jusqu'au 19 à 12h UTC


181308Z 1813/1912 20009KT 9999 SCT005 BKN015 TX19/1814Z TN13/1906Z
TEMPO 1813/1820 18018G29KT BKN005
TEMPO 1813/1912 RA
TEMPO 1813/1820 3000 SHRA SCT030TCU
TEMPO 1823/1909 3000 BR
TEMPO 1900/1909 0800 BCFG BKN005
PROB40
TEMPO 1900/1906 0350 FG VV001
TEMPO 1900/1912 26010KT
Pas de NOTAMs connus pour ce terrain.



MET'MAP, la Météo Aéronautique d'un coup d'oeil ! - Copyright ORBIFLY Décembre 2007 - Disclaimer

ORBIFLY MET'MAP TEAM :

Programmation & Développement : Alexandra Zaïnal
Conception & Développement : Baudouin d'Aumeries
Co-Programmation & Développement : Marc-Olivier Méhu
Soutien technique & logistique : Manuel Goepfert

Contact : metmap@orbifly.com




SOURCES & CREDITS :

   NOAA